Time;durP1;ratioP1;P1;durP2;ratioP2;P2;SDS_P1;SDS_P2;PMS_P1;PMS_P2;Temp;Humidity;BMP_temperature;BMP_pressure;BME280_temperature;BME280_humidity;BME280_pressure;Samples;Min_cycle;Max_cycle;Signal;HPM_P1;HPM_P2
2021/04/08 00:01:04;;;;;;;6.45;3.17;;;5.70;57.40;;;;;;10225328;28;20066;-76
2021/04/08 00:05:57;;;;;;;6.25;3.28;;;7.20;58.30;;;;;;10225437;28;20050;-76
2021/04/08 00:10:50;;;;;;;7.30;3.50;;;5.40;57.00;;;;;;10225343;28;20060;-77
2021/04/08 00:15:43;;;;;;;8.30;3.75;;;6.90;58.10;;;;;;10224656;28;20048;-77
2021/04/08 00:20:36;;;;;;;5.65;3.30;;;6.10;57.60;;;;;;10224438;28;20055;-77
2021/04/08 00:25:28;;;;;;;6.25;2.95;;;6.00;57.50;;;;;;10205916;28;20044;-76
2021/04/08 00:30:23;;;;;;;6.57;3.20;;;5.90;57.40;;;;;;10224109;28;20054;-75
2021/04/08 00:35:16;;;;;;;8.40;3.67;;;5.70;57.60;;;;;;10206291;28;20054;-77
2021/04/08 00:40:13;;;;;;;6.97;3.60;;;6.40;58.10;;;;;;10223932;28;20124;-76
2021/04/08 00:45:07;;;;;;;6.55;3.60;;;5.30;57.50;;;;;;10223893;28;20043;-77
2021/04/08 00:50:00;;;;;;;8.13;4.13;;;5.20;57.70;;;;;;10223259;28;20051;-75
2021/04/08 00:54:53;;;;;;;7.93;4.13;;;5.50;57.80;;;;;;10223174;28;20343;-77
2021/04/08 00:59:47;;;;;;;6.10;3.42;;;5.00;58.00;;;;;;10205304;28;20142;-76
2021/04/08 01:04:39;;;;;;;5.50;3.90;;;5.10;58.20;;;;;;10222623;28;20092;-76
2021/04/08 01:09:33;;;;;;;6.18;3.42;;;6.20;58.70;;;;;;10222310;28;20054;-76
2021/04/08 01:14:26;;;;;;;6.70;4.30;;;5.90;58.30;;;;;;10204611;28;20055;-76
2021/04/08 01:20:14;;;;;;;6.75;3.80;;;4.90;57.20;;;;;;10204242;28;20395;-77
2021/04/08 01:25:33;;;;;;;4.78;3.03;;;5.60;57.80;;;;;;10222009;28;20136;-77
2021/04/08 01:30:47;;;;;;;6.03;3.17;;;5.90;58.00;;;;;;10218439;28;20410;-76
2021/04/08 01:35:42;;;;;;;6.30;3.42;;;6.40;58.60;;;;;;10221697;28;20044;-75
2021/04/08 01:40:35;;;;;;;8.48;3.97;;;;;;;;;;10221527;28;20055;-77
2021/04/08 01:45:30;;;;;;;9.43;4.30;;;5.90;57.90;;;;;;10221644;28;20043;-76
2021/04/08 01:50:24;;;;;;;5.38;3.10;;;5.90;57.70;;;;;;10221252;28;20474;-76
2021/04/08 01:55:20;;;;;;;4.53;2.92;;;5.90;57.50;;;;;;10220935;28;20047;-76
2021/04/08 02:00:15;;;;;;;3.13;2.53;;;5.50;57.50;;;;;;10220578;28;20493;-76
2021/04/08 02:05:13;;;;;;;5.25;2.65;;;5.80;57.80;;;;;;10220636;28;20381;-75
2021/04/08 02:10:10;;;;;;;5.30;2.70;;;5.70;57.80;;;;;;10220583;28;20406;-76
2021/04/08 02:15:05;;;;;;;4.65;2.78;;;5.70;58.20;;;;;;10220608;28;20097;-76
2021/04/08 02:19:58;;;;;;;6.30;3.47;;;5.70;58.10;;;;;;10220847;28;20398;-75
2021/04/08 02:24:52;;;;;;;3.67;2.80;;;6.30;58.40;;;;;;10219908;28;20503;-76
2021/04/08 02:29:50;;;;;;;4.85;2.88;;;5.20;57.80;;;;;;10219520;28;20043;-76
2021/04/08 02:34:43;;;;;;;3.75;2.40;;;;;;;;;;10220634;28;20043;-76
2021/04/08 02:39:36;;;;;;;4.30;2.80;;;4.80;57.90;;;;;;10218537;28;20063;-76
2021/04/08 02:44:29;;;;;;;4.85;3.00;;;;;;;;;;10218886;28;20047;-75
2021/04/08 02:49:23;;;;;;;5.45;2.75;;;5.20;57.80;;;;;;10218924;28;20051;-76
2021/04/08 02:54:21;;;;;;;3.00;2.53;;;4.70;57.10;;;;;;10218675;28;20440;-75
2021/04/08 02:59:19;;;;;;;4.00;3.00;;;5.60;57.80;;;;;;10219295;28;20054;-76
2021/04/08 03:04:16;;;;;;;3.33;2.40;;;6.00;57.90;;;;;;10200581;28;20043;-77
2021/04/08 03:09:10;;;;;;;6.30;3.08;;;5.60;57.80;;;;;;10215963;28;20140;-76
2021/04/08 03:14:07;;;;;;;5.15;2.92;;;5.10;57.40;;;;;;10216800;28;20131;-76
2021/04/08 03:19:02;;;;;;;3.28;2.42;;;5.40;58.00;;;;;;10217950;28;20468;-75
2021/04/08 03:23:58;;;;;;;4.55;2.85;;;5.30;57.20;;;;;;10218477;28;20051;-76
2021/04/08 03:28:52;;;;;;;3.95;2.40;;;5.50;57.50;;;;;;10218606;28;20102;-76
2021/04/08 03:33:46;;;;;;;5.00;2.72;;;5.30;57.50;;;;;;10218050;28;20054;-77
2021/04/08 03:38:42;;;;;;;7.28;2.65;;;5.80;58.10;;;;;;10217677;28;20047;-77
2021/04/08 03:43:37;;;;;;;8.27;2.83;;;6.90;58.80;;;;;;10217777;28;20503;-76
2021/04/08 03:48:33;;;;;;;5.43;3.08;;;6.80;58.50;;;;;;10217527;28;20417;-74
2021/04/08 03:53:27;;;;;;;5.07;2.70;;;;;;;;;;10217508;28;20051;-77
2021/04/08 03:58:21;;;;;;;24.73;4.43;;;6.70;58.00;;;;;;10217944;28;20059;-75
2021/04/08 04:03:16;;;;;;;5.65;3.10;;;6.30;57.40;;;;;;10199574;28;20437;-76
2021/04/08 04:08:11;;;;;;;4.10;2.88;;;5.30;57.10;;;;;;10221908;28;20051;-76
2021/04/08 04:13:05;;;;;;;5.03;2.85;;;5.60;56.70;;;;;;10225069;28;20052;-78
2021/04/08 04:17:59;;;;;;;3.75;2.20;;;6.40;56.90;;;;;;10206544;28;20055;-76
2021/04/08 04:22:52;;;;;;;4.40;2.50;;;5.60;57.00;;;;;;10224326;28;20059;-75
2021/04/08 04:27:45;;;;;;;3.55;2.20;;;6.00;56.70;;;;;;10223623;28;20047;-76
2021/04/08 04:32:38;;;;;;;5.80;2.45;;;5.20;58.50;;;;;;10223650;28;20522;-75
2021/04/08 04:37:32;;;;;;;5.28;2.83;;;6.10;59.60;;;;;;10224275;28;20056;-77
2021/04/08 04:42:24;;;;;;;5.28;3.15;;;5.40;58.80;;;;;;10189378;28;20485;-76
2021/04/08 04:47:18;;;;;;;7.38;3.15;;;6.00;60.40;;;;;;10223654;28;20050;-76
2021/04/08 04:52:11;;;;;;;4.95;2.40;;;6.10;60.40;;;;;;10222847;28;20058;-76
2021/04/08 04:57:07;;;;;;;3.72;2.70;;;;;;;;;;10222388;28;20406;-78
2021/04/08 05:02:02;;;;;;;4.90;2.83;;;5.70;60.90;;;;;;10222416;28;20421;-77
2021/04/08 05:06:58;;;;;;;4.30;2.97;;;5.70;62.60;;;;;;10222607;28;20116;-75
2021/04/08 05:11:50;;;;;;;7.05;3.05;;;4.60;62.80;;;;;;10221828;28;20048;-76
2021/04/08 05:16:43;;;;;;;4.65;3.08;;;3.30;62.10;;;;;;10221875;28;20039;-77
2021/04/08 05:21:36;;;;;;;3.83;2.35;;;;;;;;;;10221318;28;20088;-76
2021/04/08 05:26:30;;;;;;;3.78;2.70;;;;;;;;;;10221496;28;20105;-77
2021/04/08 05:31:22;;;;;;;3.28;2.22;;;3.80;64.20;;;;;;10221104;28;20058;-76
2021/04/08 05:36:15;;;;;;;5.40;2.80;;;;;;;;;;10220615;28;20054;-77
2021/04/08 05:41:08;;;;;;;3.92;2.30;;;;;;;;;;10219991;28;20052;-78
2021/04/08 05:46:02;;;;;;;5.25;2.33;;;;;;;;;;10219536;28;20044;-76
2021/04/08 05:50:55;;;;;;;2.97;2.10;;;5.70;66.60;;;;;;10219506;28;20048;-77
2021/04/08 05:55:48;;;;;;;1.80;1.70;;;5.20;65.30;;;;;;10220254;28;20482;-77
2021/04/08 06:00:41;;;;;;;2.05;1.80;;;5.90;67.00;;;;;;10201435;28;20336;-76
2021/04/08 06:05:37;;;;;;;4.65;1.90;;;6.00;66.70;;;;;;10219639;28;20096;-76
2021/04/08 06:10:30;;;;;;;2.83;2.17;;;6.10;65.70;;;;;;10218512;28;20508;-76
2021/04/08 06:15:23;;;;;;;5.38;1.70;;;5.20;66.60;;;;;;10200715;28;20048;-77
2021/04/08 06:20:17;;;;;;;4.72;2.05;;;4.70;65.80;;;;;;10219619;28;20131;-77
2021/04/08 06:25:26;;;;;;;2.45;1.90;;;5.40;66.20;;;;;;10200105;28;20047;-78
2021/04/08 06:30:20;;;;;;;1.88;1.50;;;5.50;66.30;;;;;;10218619;28;20051;-76
2021/04/08 06:35:14;;;;;;;2.95;2.00;;;5.20;66.20;;;;;;10218382;28;20046;-77
2021/04/08 06:40:08;;;;;;;2.05;1.80;;;6.70;67.10;;;;;;10217818;28;20131;-76
2021/04/08 06:45:02;;;;;;;2.83;1.50;;;5.20;67.20;;;;;;10217612;28;20095;-77
2021/04/08 06:50:02;;;;;;;3.22;1.90;;;5.90;65.40;;;;;;10199203;28;20047;-75
2021/04/08 06:54:55;;;;;;;3.50;1.63;;;5.40;66.60;;;;;;10195971;28;20130;-78
2021/04/08 06:59:49;;;;;;;9.52;2.72;;;;;;;;;;10203985;28;20047;-78
2021/04/08 07:04:43;;;;;;;10.18;4.35;;;5.30;66.20;;;;;;10217243;28;20050;-74
2021/04/08 07:09:36;;;;;;;5.70;3.50;;;6.40;64.60;;;;;;10215751;28;20670;-74
2021/04/08 07:14:29;;;;;;;4.32;2.92;;;6.30;64.10;;;;;;10217528;28;20062;-75
2021/04/08 07:19:26;;;;;;;4.07;2.90;;;7.10;63.20;;;;;;10216375;28;20337;-74
2021/04/08 07:24:20;;;;;;;5.35;3.05;;;5.30;62.50;;;;;;10190061;28;20052;-76
2021/04/08 07:29:13;;;;;;;4.47;2.95;;;6.70;62.70;;;;;;10213928;28;20092;-73
2021/04/08 07:34:06;;;;;;;124.43;55.28;;;6.40;63.10;;;;;;10194071;28;20544;-74
2021/04/08 07:39:05;;;;;;;10.20;5.45;;;7.50;62.90;;;;;;10215669;28;20047;-77
2021/04/08 07:44:01;;;;;;;10.87;5.20;;;7.40;62.10;;;;;;10223469;28;20048;-78
2021/04/08 07:48:53;;;;;;;8.00;2.85;;;7.70;61.70;;;;;;10223743;28;20062;-75
2021/04/08 07:54:07;;;;;;;9.57;4.50;;;8.00;61.50;;;;;;10223175;28;20082;-75
2021/04/08 07:59:16;;;;;;;7.03;4.03;;;6.90;59.50;;;;;;10223620;28;20048;-74
2021/04/08 08:04:22;;;;;;;6.40;3.38;;;8.70;61.90;;;;;;10223762;28;20044;-78
2021/04/08 08:09:19;;;;;;;5.40;3.53;;;8.00;61.50;;;;;;10223995;28;20394;-78
2021/04/08 08:14:11;;;;;;;4.80;3.30;;;7.20;60.10;;;;;;10205697;28;20051;-76
2021/04/08 08:19:17;;;;;;;3.70;2.83;;;7.70;60.10;;;;;;10223532;28;20417;-75
2021/04/08 08:24:12;;;;;;;3.95;2.60;;;8.60;59.40;;;;;;10221790;28;20064;-78
2021/04/08 08:29:16;;;;;;;3.42;2.67;;;7.60;59.90;;;;;;10216568;28;20054;-76
2021/04/08 08:34:12;;;;;;;4.38;2.90;;;9.20;60.60;;;;;;10221480;28;20127;-75
2021/04/08 08:39:07;;;;;;;3.58;2.78;;;7.30;58.30;;;;;;10217381;28;20932;-75
2021/04/08 08:44:02;;;;;;;4.53;2.75;;;8.90;60.10;;;;;;10218808;28;20051;-75
2021/04/08 08:48:57;;;;;;;5.80;3.05;;;7.50;58.40;;;;;;10220258;28;20054;-75
2021/04/08 08:53:54;;;;;;;5.53;3.40;;;8.20;58.90;;;;;;10218917;28;20340;-76
2021/04/08 08:58:47;;;;;;;12.20;2.78;;;9.20;59.80;;;;;;10222474;28;20052;-75
2021/04/08 09:03:41;;;;;;;6.57;3.72;;;;;;;;;;10221294;28;20049;-75
2021/04/08 09:08:36;;;;;;;6.72;3.30;;;7.10;57.90;;;;;;10221293;28;20070;-75
2021/04/08 09:13:30;;;;;;;5.85;3.53;;;7.90;58.30;;;;;;10220720;28;20047;-75
2021/04/08 09:18:23;;;;;;;6.55;3.40;;;7.50;57.80;;;;;;10221127;28;20051;-76
2021/04/08 09:23:18;;;;;;;7.32;3.47;;;8.40;58.50;;;;;;10220645;28;20047;-75
2021/04/08 09:28:13;;;;;;;4.50;2.80;;;7.60;58.10;;;;;;10220766;28;20128;-76
2021/04/08 09:33:07;;;;;;;5.57;3.20;;;;;;;;;;10220774;28;20129;-75
2021/04/08 09:38:20;;;;;;;3.05;2.58;;;8.50;55.30;;;;;;10219505;28;20060;-76
2021/04/08 09:43:15;;;;;;;2.83;2.42;;;9.00;56.00;;;;;;10219995;28;20105;-76
2021/04/08 09:48:09;;;;;;;2.75;2.08;;;;;;;;;;10220467;28;20050;-75
2021/04/08 09:53:02;;;;;;;2.83;2.30;;;;;;;;;;10201449;28;20043;-75
2021/04/08 09:58:00;;;;;;;3.42;2.40;;;;;;;;;;10219379;28;20401;-76
2021/04/08 10:02:58;;;;;;;4.78;2.85;;;9.40;55.10;;;;;;10201185;28;20408;-75
2021/04/08 10:07:55;;;;;;;4.60;2.80;;;;;;;;;;10219121;28;20096;-74
2021/04/08 10:12:48;;;;;;;3.15;2.60;;;11.00;57.40;;;;;;10219675;28;20039;-75
2021/04/08 10:17:41;;;;;;;4.70;3.05;;;;;;;;;;10218780;28;20433;-75
2021/04/08 10:22:41;;;;;;;4.18;2.80;;;;;;;;;;10217790;28;20050;-75
2021/04/08 10:27:35;;;;;;;8.63;3.10;;;8.80;56.10;;;;;;10218083;28;20055;-74
2021/04/08 10:32:32;;;;;;;5.97;3.05;;;10.80;57.50;;;;;;10217678;28;20437;-75
2021/04/08 10:37:26;;;;;;;4.10;2.53;;;10.00;59.60;;;;;;10217075;28;20055;-75
2021/04/08 10:42:20;;;;;;;4.38;2.80;;;;;;;;;;10217025;28;20050;-76
2021/04/08 10:47:16;;;;;;;2.53;2.30;;;7.80;61.20;;;;;;10217785;28;20045;-75
2021/04/08 10:52:11;;;;;;;4.65;2.28;;;7.40;61.50;;;;;;10217719;28;20108;-75
2021/04/08 10:57:05;;;;;;;4.25;2.00;;;;;;;;;;10217389;28;20482;-76
2021/04/08 11:01:59;;;;;;;3.22;1.70;;;;;;;;;;10217047;28;20055;-75
2021/04/08 11:06:56;;;;;;;2.80;2.20;;;8.30;61.10;;;;;;10199616;28;20070;-75
2021/04/08 11:11:50;;;;;;;2.55;1.80;;;7.20;60.50;;;;;;10216931;28;20047;-76
2021/04/08 11:16:43;;;;;;;1.55;1.45;;;;;;;;;;10215587;28;20502;-75
2021/04/08 11:21:36;;;;;;;3.03;1.60;;;7.70;60.30;;;;;;10197899;28;20047;-75
2021/04/08 11:26:29;;;;;;;4.85;2.67;;;8.20;59.10;;;;;;10215621;28;20047;-75
2021/04/08 11:31:22;;;;;;;2.22;1.60;;;8.00;56.90;;;;;;10215755;28;20040;-75
2021/04/08 11:36:19;;;;;;;3.17;1.75;;;;;;;;;;10215791;28;20043;-76
2021/04/08 11:41:12;;;;;;;1.58;1.40;;;9.80;54.50;;;;;;10215849;28;20055;-76
2021/04/08 11:46:06;;;;;;;1.92;1.63;;;10.20;56.90;;;;;;10215811;28;20073;-75
2021/04/08 11:51:04;;;;;;;1.20;1.10;;;11.20;58.20;;;;;;10215200;28;20121;-74
2021/04/08 11:55:57;;;;;;;1.30;1.13;;;9.40;56.20;;;;;;10218122;28;20048;-74
2021/04/08 12:00:50;;;;;;;4.45;1.92;;;10.40;55.00;;;;;;10214666;28;20397;-74
2021/04/08 12:05:44;;;;;;;2.47;1.35;;;13.50;49.50;;;;;;10197772;28;20046;-75
2021/04/08 12:10:37;;;;;;;3.47;1.33;;;15.60;44.10;;;;;;10215458;28;20466;-75
2021/04/08 12:15:36;;;;;;;4.03;1.77;;;13.20;44.80;;;;;;10214764;28;20066;-76
2021/04/08 12:20:35;;;;;;;10.70;4.63;;;11.00;51.80;;;;;;10215179;28;20123;-75
2021/04/08 12:25:29;;;;;;;2.00;1.63;;;12.80;54.90;;;;;;10215214;28;20055;-76
2021/04/08 12:30:22;;;;;;;4.13;1.83;;;12.20;48.20;;;;;;10221323;28;20058;-76
2021/04/08 12:35:16;;;;;;;5.13;1.52;;;15.10;44.50;;;;;;10221182;28;20053;-76
2021/04/08 12:40:08;;;;;;;4.47;1.38;;;15.60;39.90;;;;;;10221425;28;20446;-75
2021/04/08 12:45:02;;;;;;;5.72;1.55;;;11.60;46.30;;;;;;10221164;28;20054;-77
2021/04/08 12:49:55;;;;;;;3.33;1.80;;;9.50;53.80;;;;;;10217374;28;20468;-78
2021/04/08 12:54:48;;;;;;;5.00;2.22;;;8.60;60.60;;;;;;10219571;28;20758;-75
2021/04/08 12:59:42;;;;;;;2.83;1.13;;;;;;;;;;10202664;28;20485;-75
2021/04/08 13:04:35;;;;;;;1.33;1.10;;;12.40;60.90;;;;;;10220812;28;20780;-75
2021/04/08 13:09:28;;;;;;;1.25;0.95;;;11.50;59.30;;;;;;10221575;28;20164;-73
2021/04/08 13:14:22;;;;;;;2.55;0.90;;;;;;;;;;10220466;28;20096;-75
2021/04/08 13:19:14;;;;;;;1.98;0.95;;;11.40;59.80;;;;;;10220603;28;20079;-75
2021/04/08 13:24:08;;;;;;;1.67;0.80;;;10.70;60.70;;;;;;10198850;28;20043;-74
2021/04/08 13:29:02;;;;;;;3.53;1.00;;;;;;;;;;10210909;28;20059;-75
2021/04/08 13:33:55;;;;;;;3.50;1.65;;;10.80;57.30;;;;;;10218700;28;20056;-75
2021/04/08 13:38:47;;;;;;;1.92;1.30;;;10.20;55.60;;;;;;10198235;28;20079;-77
2021/04/08 13:43:41;;;;;;;3.13;1.48;;;10.70;53.20;;;;;;10219215;28;20069;-76
2021/04/08 13:48:34;;;;;;;2.63;1.60;;;10.80;52.80;;;;;;10215062;28;20051;-77
2021/04/08 13:53:31;;;;;;;3.58;1.60;;;;;;;;;;10216406;28;20047;-77
2021/04/08 13:58:23;;;;;;;5.72;1.65;;;11.10;52.50;;;;;;10217095;28;20051;-77
2021/04/08 14:03:20;;;;;;;3.85;1.83;;;;;;;;;;10217267;28;20044;-76
2021/04/08 14:08:13;;;;;;;2.20;1.55;;;;;;;;;;10200978;28;20482;-75
2021/04/08 14:13:06;;;;;;;2.92;2.00;;;;;;;;;;10218028;28;20051;-76
2021/04/08 14:17:58;;;;;;;6.50;2.33;;;10.40;54.90;;;;;;10217550;28;20471;-76
2021/04/08 14:22:52;;;;;;;3.92;2.58;;;9.80;55.40;;;;;;10198017;28;20039;-76
2021/04/08 14:27:48;;;;;;;5.57;2.17;;;;;;;;;;10217017;28;20509;-77
2021/04/08 14:32:41;;;;;;;3.03;2.30;;;9.60;55.50;;;;;;10216187;28;20545;-78
2021/04/08 14:37:34;;;;;;;12.32;2.60;;;;;;;;;;10197060;28;20059;-79
2021/04/08 14:42:28;;;;;;;5.43;2.17;;;;;;;;;;10216480;28;20092;-76
2021/04/08 14:47:24;;;;;;;3.72;2.38;;;10.50;56.40;;;;;;10217941;28;20058;-84
2021/04/08 14:52:17;;;;;;;4.47;2.33;;;9.30;56.50;;;;;;10210142;28;20130;-82
2021/04/08 14:57:11;;;;;;;6.60;2.55;;;9.80;56.90;;;;;;10203707;28;20482;-80
2021/04/08 15:02:07;;;;;;;6.00;2.40;;;;;;;;;;10203698;28;20047;-88
2021/04/08 15:07:02;;;;;;;5.15;2.42;;;10.50;56.40;;;;;;10208902;28;20047;-87
2021/04/08 15:11:56;;;;;;;11.73;2.45;;;10.00;56.50;;;;;;10199168;28;20467;-83
2021/04/08 15:16:50;;;;;;;7.65;2.13;;;10.30;56.50;;;;;;10192950;28;20046;-85
2021/04/08 15:21:44;;;;;;;10.98;2.90;;;8.70;55.60;;;;;;10218356;28;20035;-85
2021/04/08 15:26:37;;;;;;;3.35;1.70;;;9.10;55.30;;;;;;10174054;28;20052;-84
2021/04/08 15:31:30;;;;;;;2.25;1.30;;;;;;;;;;10204976;28;20071;-76
2021/04/08 15:36:23;;;;;;;5.43;1.67;;;8.40;53.40;;;;;;10215454;28;20127;-76
2021/04/08 15:41:17;;;;;;;2.92;1.20;;;;;;;;;;10214016;28;20597;-76
2021/04/08 15:46:10;;;;;;;4.20;1.58;;;10.70;54.50;;;;;;10192896;28;20299;-76
2021/04/08 15:51:03;;;;;;;3.40;1.45;;;9.10;54.40;;;;;;10213140;28;20109;-76
2021/04/08 15:55:56;;;;;;;3.22;1.40;;;10.00;54.80;;;;;;10212687;28;20044;-76
2021/04/08 16:00:49;;;;;;;1.88;1.38;;;9.80;54.70;;;;;;10212905;28;20054;-76
2021/04/08 16:05:42;;;;;;;2.53;1.85;;;9.40;55.30;;;;;;10220793;28;20048;-75
2021/04/08 16:10:35;;;;;;;3.22;1.80;;;10.70;55.20;;;;;;10219688;28;20127;-75
2021/04/08 16:15:28;;;;;;;2.88;1.50;;;;;;;;;;10220905;28;20044;-76
2021/04/08 16:20:22;;;;;;;3.92;1.80;;;;;;;;;;10206161;28;20039;-77
2021/04/08 16:25:15;;;;;;;3.30;1.70;;;;;;;;;;10220364;28;20050;-75
2021/04/08 16:30:28;;;;;;;4.40;1.85;;;8.30;52.70;;;;;;10221039;28;20053;-76
2021/04/08 16:35:22;;;;;;;3.33;1.80;;;9.40;54.10;;;;;;10221151;28;20050;-75
2021/04/08 16:40:15;;;;;;;4.65;1.85;;;10.50;54.90;;;;;;10220014;28;20062;-75
2021/04/08 16:45:10;;;;;;;3.25;1.50;;;10.20;54.60;;;;;;10221295;28;20051;-75
2021/04/08 16:50:04;;;;;;;4.60;1.77;;;9.10;53.90;;;;;;10220907;28;20048;-76
2021/04/08 16:54:59;;;;;;;3.85;1.90;;;10.20;53.70;;;;;;10219801;28;20187;-75
2021/04/08 16:59:52;;;;;;;4.35;2.03;;;9.00;53.80;;;;;;10220230;28;20055;-76
2021/04/08 17:04:44;;;;;;;2.80;1.80;;;8.60;53.00;;;;;;10201537;28;20046;-76
2021/04/08 17:09:37;;;;;;;2.97;1.80;;;9.80;53.70;;;;;;10220181;28;20115;-76
2021/04/08 17:14:31;;;;;;;4.60;2.13;;;9.20;54.20;;;;;;10218488;28;20077;-75
2021/04/08 17:19:23;;;;;;;5.78;2.55;;;9.70;54.10;;;;;;10220191;28;20528;-75
2021/04/08 17:24:16;;;;;;;3.67;2.10;;;;;;;;;;10213818;28;20062;-75
2021/04/08 17:29:09;;;;;;;3.67;2.00;;;10.10;54.80;;;;;;10212789;28;20062;-75
2021/04/08 17:34:03;;;;;;;3.13;1.83;;;7.40;53.40;;;;;;10218242;28;20047;-75
2021/04/08 17:38:57;;;;;;;5.82;2.25;;;8.20;53.20;;;;;;10217906;28;20539;-75
2021/04/08 17:43:49;;;;;;;8.27;2.95;;;8.60;54.30;;;;;;10218427;28;20055;-75
2021/04/08 17:48:42;;;;;;;4.38;2.42;;;7.60;53.30;;;;;;10218697;28;20052;-76
2021/04/08 17:53:36;;;;;;;3.05;2.05;;;8.40;54.20;;;;;;10218665;28;20047;-76
2021/04/08 17:58:28;;;;;;;6.45;2.83;;;9.30;54.40;;;;;;10218498;28;20050;-76
2021/04/08 18:03:21;;;;;;;4.35;2.40;;;9.60;55.20;;;;;;10200805;28;20059;-77
2021/04/08 18:08:14;;;;;;;4.47;2.58;;;7.90;54.40;;;;;;10218493;28;20444;-74
2021/04/08 18:13:07;;;;;;;5.13;2.50;;;8.10;54.10;;;;;;10217233;28;20043;-75
2021/04/08 18:18:00;;;;;;;4.60;2.67;;;9.10;55.00;;;;;;10217666;28;20047;-74
2021/04/08 18:22:54;;;;;;;6.75;2.75;;;8.10;54.40;;;;;;10216817;28;20160;-75
2021/04/08 18:27:47;;;;;;;4.00;2.72;;;8.80;54.60;;;;;;10215195;28;20039;-74
2021/04/08 18:32:42;;;;;;;3.45;2.63;;;8.30;54.50;;;;;;10207407;28;20036;-75
2021/04/08 18:37:35;;;;;;;3.28;2.38;;;9.30;55.20;;;;;;10216049;28;20070;-76
2021/04/08 18:42:28;;;;;;;4.72;2.63;;;;;;;;;;10217364;28;20047;-76
2021/04/08 18:47:21;;;;;;;7.63;2.88;;;7.90;54.20;;;;;;10216662;28;20036;-75
2021/04/08 18:52:16;;;;;;;3.97;3.00;;;7.70;53.10;;;;;;10216307;28;20068;-75
2021/04/08 18:57:09;;;;;;;6.38;2.83;;;8.40;54.20;;;;;;10216220;28;20077;-75
2021/04/08 19:02:02;;;;;;;8.75;3.83;;;8.80;54.40;;;;;;10214846;28;20039;-72
2021/04/08 19:06:55;;;;;;;6.20;3.10;;;9.20;54.20;;;;;;10215634;28;20487;-72
2021/04/08 19:11:50;;;;;;;4.82;2.63;;;8.60;52.70;;;;;;10216365;28;20405;-71
2021/04/08 19:16:42;;;;;;;4.53;3.20;;;8.10;52.30;;;;;;10215825;28;20047;-72
2021/04/08 19:21:35;;;;;;;5.22;2.78;;;7.80;52.20;;;;;;10215947;28;20135;-73
2021/04/08 19:26:28;;;;;;;3.97;2.67;;;9.60;54.20;;;;;;10216290;28;20047;-72
2021/04/08 19:31:21;;;;;;;3.80;2.67;;;8.60;52.50;;;;;;10216311;28;20058;-73
2021/04/08 19:36:14;;;;;;;4.60;2.83;;;7.00;52.80;;;;;;10214780;28;20046;-73
2021/04/08 19:41:09;;;;;;;5.90;2.70;;;10.20;54.30;;;;;;10213947;28;20048;-73
2021/04/08 19:46:02;;;;;;;4.55;2.38;;;7.90;52.00;;;;;;10224144;28;20053;-72
2021/04/08 19:50:55;;;;;;;4.75;2.78;;;8.40;52.20;;;;;;10223705;28;20078;-73
2021/04/08 19:55:48;;;;;;;6.80;2.92;;;8.70;52.20;;;;;;10199046;28;20039;-72
2021/04/08 20:00:44;;;;;;;7.75;3.20;;;8.20;51.90;;;;;;10204692;28;20055;-72
2021/04/08 20:05:37;;;;;;;8.32;2.90;;;8.10;51.90;;;;;;10222458;28;20040;-71
2021/04/08 20:10:31;;;;;;;6.00;2.83;;;8.50;52.00;;;;;;10222625;28;20059;-72
2021/04/08 20:15:24;;;;;;;8.93;3.25;;;8.10;51.60;;;;;;10221168;28;20155;-76
2021/04/08 20:20:17;;;;;;;6.82;2.85;;;9.30;53.80;;;;;;10222447;28;20052;-77
2021/04/08 20:25:14;;;;;;;5.28;2.97;;;8.30;53.60;;;;;;10222120;28;20071;-77
2021/04/08 20:30:09;;;;;;;6.45;3.22;;;8.80;54.00;;;;;;10222253;28;20054;-76
2021/04/08 20:35:02;;;;;;;4.60;2.72;;;7.60;52.50;;;;;;10221815;28;20055;-76
2021/04/08 20:39:55;;;;;;;3.63;2.78;;;7.70;53.60;;;;;;10220829;28;20047;-77
2021/04/08 20:44:47;;;;;;;10.55;3.03;;;9.50;53.60;;;;;;10207419;28;20093;-76
2021/04/08 20:49:41;;;;;;;4.65;3.08;;;7.70;53.70;;;;;;10220505;28;20043;-76
2021/04/08 20:54:38;;;;;;;4.00;2.55;;;;;;;;;;10220494;28;20055;-76
2021/04/08 20:59:31;;;;;;;4.70;2.47;;;9.90;54.70;;;;;;10220859;28;20117;-76
2021/04/08 21:04:23;;;;;;;5.40;2.80;;;8.40;53.20;;;;;;10221453;28;20039;-76
2021/04/08 21:09:17;;;;;;;5.18;2.90;;;6.80;52.30;;;;;;10219743;28;20031;-76
2021/04/08 21:14:10;;;;;;;5.38;3.40;;;8.60;53.70;;;;;;10220484;28;20055;-76
2021/04/08 21:19:03;;;;;;;7.13;2.80;;;8.80;53.80;;;;;;10220046;28;20075;-76
2021/04/08 21:23:55;;;;;;;7.03;2.90;;;7.60;53.60;;;;;;10193124;28;20428;-76
2021/04/08 21:28:50;;;;;;;9.02;3.10;;;8.50;54.30;;;;;;10207381;28;20811;-76
2021/04/08 21:33:43;;;;;;;9.75;3.70;;;8.00;54.20;;;;;;10219249;28;20046;-77
2021/04/08 21:38:36;;;;;;;8.18;5.35;;;8.40;55.00;;;;;;10208201;28;20478;-76
2021/04/08 21:43:29;;;;;;;10.70;5.75;;;7.80;55.10;;;;;;10218227;28;20445;-76
2021/04/08 21:48:23;;;;;;;12.02;5.35;;;7.60;55.20;;;;;;10218289;28;20093;-76
2021/04/08 21:53:15;;;;;;;12.65;5.75;;;7.00;55.00;;;;;;10219116;28;20051;-77
2021/04/08 21:58:08;;;;;;;9.18;4.47;;;7.70;55.60;;;;;;10218885;28;20036;-76
2021/04/08 22:03:02;;;;;;;9.90;4.93;;;8.20;55.40;;;;;;10199526;28;20070;-76
2021/04/08 22:07:56;;;;;;;9.32;4.45;;;6.70;54.80;;;;;;10217582;28;20043;-76
2021/04/08 22:12:50;;;;;;;9.23;4.72;;;7.80;56.00;;;;;;10218656;28;20075;-77
2021/04/08 22:17:44;;;;;;;7.93;4.68;;;8.60;56.60;;;;;;10217973;28;20409;-75
2021/04/08 22:22:38;;;;;;;8.68;4.68;;;7.90;55.80;;;;;;10217399;28;20050;-79
2021/04/08 22:27:32;;;;;;;8.52;4.95;;;7.50;56.00;;;;;;10216866;28;20043;-78
2021/04/08 22:32:24;;;;;;;10.98;4.95;;;8.00;55.50;;;;;;10216911;28;20047;-77
2021/04/08 22:37:19;;;;;;;8.55;4.30;;;6.40;54.90;;;;;;10195784;28;20077;-77
2021/04/08 22:42:12;;;;;;;9.07;4.00;;;8.20;54.40;;;;;;10213087;28;20490;-76
2021/04/08 22:47:06;;;;;;;26.63;4.00;;;;;;;;;;10212517;28;20051;-78
2021/04/08 22:51:59;;;;;;;13.05;5.55;;;8.20;53.90;;;;;;10214287;28;20074;-79
2021/04/08 22:56:52;;;;;;;8.48;5.45;;;8.10;54.00;;;;;;10213800;28;20070;-80
2021/04/08 23:01:45;;;;;;;9.23;4.15;;;;;;;;;;10195855;28;20675;-79
2021/04/08 23:06:41;;;;;;;8.60;3.60;;;9.30;54.40;;;;;;10216161;28;20043;-79
2021/04/08 23:11:34;;;;;;;13.07;5.30;;;8.20;53.70;;;;;;10215513;28;20052;-79
2021/04/08 23:16:27;;;;;;;11.85;5.93;;;7.80;54.40;;;;;;10216019;28;20043;-79
2021/04/08 23:21:20;;;;;;;9.32;5.15;;;9.00;54.20;;;;;;10215816;28;20111;-79
2021/04/08 23:26:13;;;;;;;10.57;5.70;;;7.80;54.00;;;;;;10215619;28;20375;-78
2021/04/08 23:31:06;;;;;;;12.50;5.07;;;9.00;54.60;;;;;;10215685;28;20047;-79
2021/04/08 23:35:59;;;;;;;11.20;5.70;;;7.30;55.10;;;;;;10215643;28;20092;-77
2021/04/08 23:40:51;;;;;;;9.10;4.93;;;8.70;55.00;;;;;;10213268;28;20058;-76
2021/04/08 23:45:45;;;;;;;10.55;4.95;;;8.40;54.80;;;;;;10213341;28;20472;-76
2021/04/08 23:50:38;;;;;;;6.88;4.30;;;9.10;54.80;;;;;;10214451;28;20047;-77
2021/04/08 23:55:31;;;;;;;9.75;4.70;;;9.00;54.90;;;;;;10214246;28;20040;-79
